sensor_id;sensor_type;location;lat;lon;timestamp;P1;durP1;ratioP1;P2;durP2;ratioP2
34695;SDS011;20918;51.138;17.370;2023-06-22T18:04:38;5.40;;;4.60;;
34695;SDS011;20918;51.138;17.370;2023-06-22T18:07:39;5.30;;;4.80;;
34695;SDS011;20918;51.138;17.370;2023-06-22T18:10:40;6.20;;;4.30;;
34695;SDS011;20918;51.138;17.370;2023-06-22T18:13:43;5.90;;;4.50;;
34695;SDS011;20918;51.138;17.370;2023-06-22T18:16:45;5.90;;;4.80;;
34695;SDS011;20918;51.138;17.370;2023-06-22T18:19:50;10.10;;;5.00;;
34695;SDS011;20918;51.138;17.370;2023-06-22T18:22:51;8.10;;;4.70;;
34695;SDS011;20918;51.138;17.370;2023-06-22T18:25:53;5.40;;;4.90;;
34695;SDS011;20918;51.138;17.370;2023-06-22T18:28:55;8.90;;;4.80;;
34695;SDS011;20918;51.138;17.370;2023-06-22T18:31:56;6.40;;;4.90;;
34695;SDS011;20918;51.138;17.370;2023-06-22T18:34:57;9.30;;;5.00;;
34695;SDS011;20918;51.138;17.370;2023-06-22T18:37:59;9.80;;;5.40;;
34695;SDS011;20918;51.138;17.370;2023-06-22T18:41:01;12.00;;;6.10;;
34695;SDS011;20918;51.138;17.370;2023-06-22T18:44:02;9.50;;;6.20;;
34695;SDS011;20918;51.138;17.370;2023-06-22T18:47:03;12.00;;;7.00;;
34695;SDS011;20918;51.138;17.370;2023-06-22T18:50:07;12.60;;;7.10;;
34695;SDS011;20918;51.138;17.370;2023-06-22T18:56:17;8.90;;;7.30;;
34695;SDS011;20918;51.138;17.370;2023-06-22T19:05:52;7.10;;;5.50;;
34695;SDS011;20918;51.138;17.370;2023-06-22T19:09:12;7.90;;;5.80;;
34695;SDS011;20918;51.138;17.370;2023-06-22T19:12:18;5.90;;;5.20;;
34695;SDS011;20918;51.138;17.370;2023-06-22T19:15:20;6.50;;;5.00;;
34695;SDS011;20918;51.138;17.370;2023-06-22T19:21:34;5.80;;;5.00;;
34695;SDS011;20918;51.138;17.370;2023-06-22T19:24:49;8.30;;;5.70;;
34695;SDS011;20918;51.138;17.370;2023-06-22T19:27:51;12.30;;;5.00;;
34695;SDS011;20918;51.138;17.370;2023-06-22T19:30:59;6.20;;;4.90;;
34695;SDS011;20918;51.138;17.370;2023-06-22T19:34:01;7.00;;;5.00;;
34695;SDS011;20918;51.138;17.370;2023-06-22T19:37:13;8.50;;;5.90;;
34695;SDS011;20918;51.138;17.370;2023-06-22T19:40:16;6.20;;;5.20;;
34695;SDS011;20918;51.138;17.370;2023-06-22T19:43:17;5.40;;;4.90;;
34695;SDS011;20918;51.138;17.370;2023-06-22T19:46:25;5.50;;;4.50;;
34695;SDS011;20918;51.138;17.370;2023-06-22T19:49:30;6.90;;;4.80;;
34695;SDS011;20918;51.138;17.370;2023-06-22T19:52:34;6.40;;;5.10;;
34695;SDS011;20918;51.138;17.370;2023-06-22T19:55:40;5.80;;;5.10;;
34695;SDS011;20918;51.138;17.370;2023-06-22T19:58:43;8.90;;;4.70;;
34695;SDS011;20918;51.138;17.370;2023-06-22T20:01:43;6.60;;;4.70;;
34695;SDS011;20918;51.138;17.370;2023-06-22T20:04:44;7.80;;;4.60;;
34695;SDS011;20918;51.138;17.370;2023-06-22T20:07:45;6.10;;;4.40;;
34695;SDS011;20918;51.138;17.370;2023-06-22T20:10:46;9.20;;;4.70;;
34695;SDS011;20918;51.138;17.370;2023-06-22T20:13:48;6.60;;;4.80;;
34695;SDS011;20918;51.138;17.370;2023-06-22T20:16:49;7.90;;;4.90;;
34695;SDS011;20918;51.138;17.370;2023-06-22T20:19:55;5.70;;;4.40;;
34695;SDS011;20918;51.138;17.370;2023-06-22T20:22:56;5.40;;;4.60;;
34695;SDS011;20918;51.138;17.370;2023-06-22T20:25:59;6.10;;;4.50;;
34695;SDS011;20918;51.138;17.370;2023-06-22T20:29:00;5.60;;;5.00;;
34695;SDS011;20918;51.138;17.370;2023-06-22T20:32:08;7.10;;;4.80;;
34695;SDS011;20918;51.138;17.370;2023-06-22T20:35:12;6.70;;;4.40;;
34695;SDS011;20918;51.138;17.370;2023-06-22T20:38:13;11.30;;;5.20;;
34695;SDS011;20918;51.138;17.370;2023-06-22T20:41:14;10.00;;;5.30;;
34695;SDS011;20918;51.138;17.370;2023-06-22T20:44:16;6.70;;;5.60;;
34695;SDS011;20918;51.138;17.370;2023-06-22T20:47:17;8.70;;;5.00;;
34695;SDS011;20918;51.138;17.370;2023-06-22T20:50:20;8.50;;;5.40;;
34695;SDS011;20918;51.138;17.370;2023-06-22T20:53:22;6.00;;;5.20;;
34695;SDS011;20918;51.138;17.370;2023-06-22T20:56:22;8.20;;;5.40;;
34695;SDS011;20918;51.138;17.370;2023-06-22T20:59:24;8.00;;;5.60;;
34695;SDS011;20918;51.138;17.370;2023-06-22T21:02:24;9.50;;;5.80;;
34695;SDS011;20918;51.138;17.370;2023-06-22T21:05:25;6.70;;;5.50;;
34695;SDS011;20918;51.138;17.370;2023-06-22T21:08:26;10.10;;;5.60;;
34695;SDS011;20918;51.138;17.370;2023-06-22T21:11:27;10.20;;;6.40;;
34695;SDS011;20918;51.138;17.370;2023-06-22T21:14:27;7.80;;;5.50;;
34695;SDS011;20918;51.138;17.370;2023-06-22T21:17:28;8.60;;;5.40;;
34695;SDS011;20918;51.138;17.370;2023-06-22T21:20:29;8.50;;;5.60;;
34695;SDS011;20918;51.138;17.370;2023-06-22T21:23:29;8.60;;;6.10;;
34695;SDS011;20918;51.138;17.370;2023-06-22T21:26:30;8.90;;;6.80;;
34695;SDS011;20918;51.138;17.370;2023-06-22T21:29:32;6.50;;;5.80;;
34695;SDS011;20918;51.138;17.370;2023-06-22T21:32:33;8.40;;;6.10;;
34695;SDS011;20918;51.138;17.370;2023-06-22T21:35:33;10.00;;;5.70;;
34695;SDS011;20918;51.138;17.370;2023-06-22T21:38:34;6.50;;;5.00;;
34695;SDS011;20918;51.138;17.370;2023-06-22T21:41:35;7.80;;;5.10;;
34695;SDS011;20918;51.138;17.370;2023-06-22T21:44:36;9.30;;;6.30;;
34695;SDS011;20918;51.138;17.370;2023-06-22T21:47:36;8.00;;;5.50;;
34695;SDS011;20918;51.138;17.370;2023-06-22T21:50:37;6.30;;;5.20;;
34695;SDS011;20918;51.138;17.370;2023-06-22T21:53:38;11.10;;;5.80;;
34695;SDS011;20918;51.138;17.370;2023-06-22T21:56:39;6.80;;;5.80;;
34695;SDS011;20918;51.138;17.370;2023-06-22T21:59:40;9.10;;;5.70;;
34695;SDS011;20918;51.138;17.370;2023-06-22T22:02:40;6.70;;;5.60;;
34695;SDS011;20918;51.138;17.370;2023-06-22T22:05:41;6.80;;;5.30;;
34695;SDS011;20918;51.138;17.370;2023-06-22T22:08:42;7.90;;;5.40;;
34695;SDS011;20918;51.138;17.370;2023-06-22T22:11:43;6.90;;;5.30;;
34695;SDS011;20918;51.138;17.370;2023-06-22T22:14:43;7.20;;;5.50;;
34695;SDS011;20918;51.138;17.370;2023-06-22T22:17:45;7.30;;;5.70;;
